sensor_id;sensor_type;location;lat;lon;timestamp;temperature;humidity
12049;DHT22;6085;49.452;8.502;2023-05-29T00:02:50;15.90;99.90
12049;DHT22;6085;49.452;8.502;2023-05-29T00:06:54;15.90;99.90
12049;DHT22;6085;49.452;8.502;2023-05-29T00:10:56;15.90;99.90
12049;DHT22;6085;49.452;8.502;2023-05-29T00:14:58;15.90;99.90
12049;DHT22;6085;49.452;8.502;2023-05-29T00:19:00;15.80;99.90
12049;DHT22;6085;49.452;8.502;2023-05-29T00:23:04;15.70;99.90
12049;DHT22;6085;49.452;8.502;2023-05-29T00:27:06;15.50;99.90
12049;DHT22;6085;49.452;8.502;2023-05-29T00:31:09;15.20;99.90
12049;DHT22;6085;49.452;8.502;2023-05-29T00:35:12;15.20;99.90
12049;DHT22;6085;49.452;8.502;2023-05-29T00:39:15;15.10;99.90
12049;DHT22;6085;49.452;8.502;2023-05-29T00:43:17;14.90;99.90
12049;DHT22;6085;49.452;8.502;2023-05-29T00:47:19;14.80;99.90
12049;DHT22;6085;49.452;8.502;2023-05-29T00:51:22;14.80;99.90
12049;DHT22;6085;49.452;8.502;2023-05-29T00:55:25;14.70;99.90
12049;DHT22;6085;49.452;8.502;2023-05-29T00:59:29;14.60;99.90
12049;DHT22;6085;49.452;8.502;2023-05-29T01:03:32;14.60;99.90
12049;DHT22;6085;49.452;8.502;2023-05-29T01:07:36;14.50;99.90
12049;DHT22;6085;49.452;8.502;2023-05-29T01:11:47;14.50;99.90
12049;DHT22;6085;49.452;8.502;2023-05-29T01:15:56;14.40;99.90
12049;DHT22;6085;49.452;8.502;2023-05-29T01:20:08;14.40;99.90
12049;DHT22;6085;49.452;8.502;2023-05-29T01:24:17;14.40;99.90
12049;DHT22;6085;49.452;8.502;2023-05-29T01:28:27;14.40;99.90
12049;DHT22;6085;49.452;8.502;2023-05-29T01:32:33;14.40;99.90
12049;DHT22;6085;49.452;8.502;2023-05-29T01:36:36;14.50;99.90
12049;DHT22;6085;49.452;8.502;2023-05-29T01:40:38;14.60;99.90
12049;DHT22;6085;49.452;8.502;2023-05-29T01:44:42;14.70;99.90
12049;DHT22;6085;49.452;8.502;2023-05-29T01:48:45;14.80;99.90
12049;DHT22;6085;49.452;8.502;2023-05-29T01:52:47;14.80;99.90
12049;DHT22;6085;49.452;8.502;2023-05-29T01:56:49;14.80;99.90
12049;DHT22;6085;49.452;8.502;2023-05-29T02:00:54;14.80;99.90
12049;DHT22;6085;49.452;8.502;2023-05-29T02:04:57;14.80;99.90
12049;DHT22;6085;49.452;8.502;2023-05-29T02:08:59;14.80;99.90
12049;DHT22;6085;49.452;8.502;2023-05-29T02:13:01;14.80;99.90
12049;DHT22;6085;49.452;8.502;2023-05-29T02:17:05;14.70;99.90
12049;DHT22;6085;49.452;8.502;2023-05-29T02:21:07;14.70;99.90
12049;DHT22;6085;49.452;8.502;2023-05-29T02:25:09;14.60;99.90
12049;DHT22;6085;49.452;8.502;2023-05-29T02:29:11;14.50;99.90
12049;DHT22;6085;49.452;8.502;2023-05-29T02:33:14;14.40;99.90
12049;DHT22;6085;49.452;8.502;2023-05-29T02:37:17;14.30;99.90
12049;DHT22;6085;49.452;8.502;2023-05-29T02:41:19;14.10;99.90
12049;DHT22;6085;49.452;8.502;2023-05-29T02:45:21;14.00;99.90
12049;DHT22;6085;49.452;8.502;2023-05-29T02:49:24;13.90;99.90
12049;DHT22;6085;49.452;8.502;2023-05-29T02:53:26;13.80;99.90
12049;DHT22;6085;49.452;8.502;2023-05-29T02:57:28;13.90;99.90
12049;DHT22;6085;49.452;8.502;2023-05-29T03:01:30;13.90;99.90
12049;DHT22;6085;49.452;8.502;2023-05-29T03:05:34;13.80;99.90
12049;DHT22;6085;49.452;8.502;2023-05-29T03:09:36;13.80;99.90
12049;DHT22;6085;49.452;8.502;2023-05-29T03:13:38;13.70;99.90
12049;DHT22;6085;49.452;8.502;2023-05-29T03:17:40;13.70;99.90
12049;DHT22;6085;49.452;8.502;2023-05-29T03:21:44;13.70;99.90
12049;DHT22;6085;49.452;8.502;2023-05-29T03:25:46;13.60;99.90
12049;DHT22;6085;49.452;8.502;2023-05-29T03:29:48;13.50;99.90
12049;DHT22;6085;49.452;8.502;2023-05-29T03:33:50;13.50;99.90
12049;DHT22;6085;49.452;8.502;2023-05-29T03:37:54;13.50;99.90
12049;DHT22;6085;49.452;8.502;2023-05-29T03:41:55;13.50;99.90
12049;DHT22;6085;49.452;8.502;2023-05-29T03:45:57;13.50;99.90
12049;DHT22;6085;49.452;8.502;2023-05-29T03:49:59;13.50;99.90
12049;DHT22;6085;49.452;8.502;2023-05-29T03:54:03;13.50;99.90
12049;DHT22;6085;49.452;8.502;2023-05-29T03:58:05;13.60;99.90
12049;DHT22;6085;49.452;8.502;2023-05-29T04:02:07;13.50;99.90
12049;DHT22;6085;49.452;8.502;2023-05-29T04:06:09;13.60;99.90
12049;DHT22;6085;49.452;8.502;2023-05-29T04:10:13;13.70;99.90
12049;DHT22;6085;49.452;8.502;2023-05-29T04:14:14;13.80;99.90
12049;DHT22;6085;49.452;8.502;2023-05-29T04:18:16;14.00;99.90
12049;DHT22;6085;49.452;8.502;2023-05-29T04:22:18;14.10;99.90
12049;DHT22;6085;49.452;8.502;2023-05-29T04:26:25;14.20;99.90
12049;DHT22;6085;49.452;8.502;2023-05-29T04:30:27;14.30;99.90
12049;DHT22;6085;49.452;8.502;2023-05-29T04:34:29;14.40;99.90
12049;DHT22;6085;49.452;8.502;2023-05-29T04:38:31;14.60;99.90
12049;DHT22;6085;49.452;8.502;2023-05-29T04:42:34;14.90;99.90
12049;DHT22;6085;49.452;8.502;2023-05-29T04:46:36;15.20;99.90
12049;DHT22;6085;49.452;8.502;2023-05-29T04:50:38;15.40;99.90
12049;DHT22;6085;49.452;8.502;2023-05-29T04:54:40;15.40;99.90
12049;DHT22;6085;49.452;8.502;2023-05-29T04:58:43;15.40;99.90
12049;DHT22;6085;49.452;8.502;2023-05-29T05:02:45;15.60;99.90
12049;DHT22;6085;49.452;8.502;2023-05-29T05:06:47;15.80;99.90
12049;DHT22;6085;49.452;8.502;2023-05-29T05:10:49;16.00;99.90
12049;DHT22;6085;49.452;8.502;2023-05-29T05:14:52;16.10;99.90
12049;DHT22;6085;49.452;8.502;2023-05-29T05:18:54;16.20;99.90
12049;DHT22;6085;49.452;8.502;2023-05-29T05:22:57;16.40;99.90
12049;DHT22;6085;49.452;8.502;2023-05-29T05:27:00;16.50;99.90
12049;DHT22;6085;49.452;8.502;2023-05-29T05:31:04;16.70;99.90
12049;DHT22;6085;49.452;8.502;2023-05-29T05:35:07;16.90;99.90
12049;DHT22;6085;49.452;8.502;2023-05-29T05:39:11;17.20;99.90
12049;DHT22;6085;49.452;8.502;2023-05-29T05:43:13;17.50;99.90
12049;DHT22;6085;49.452;8.502;2023-05-29T05:47:17;18.10;99.90
12049;DHT22;6085;49.452;8.502;2023-05-29T05:51:19;18.60;99.90
12049;DHT22;6085;49.452;8.502;2023-05-29T05:55:21;19.10;99.90
12049;DHT22;6085;49.452;8.502;2023-05-29T05:59:23;19.50;99.90
12049;DHT22;6085;49.452;8.502;2023-05-29T06:03:26;20.10;99.90
12049;DHT22;6085;49.452;8.502;2023-05-29T06:07:28;20.50;99.90
12049;DHT22;6085;49.452;8.502;2023-05-29T06:11:31;21.10;99.90
12049;DHT22;6085;49.452;8.502;2023-05-29T06:15:33;21.30;99.90
12049;DHT22;6085;49.452;8.502;2023-05-29T06:19:37;21.40;99.90
12049;DHT22;6085;49.452;8.502;2023-05-29T06:23:39;21.60;99.90
12049;DHT22;6085;49.452;8.502;2023-05-29T06:27:42;21.60;99.90
12049;DHT22;6085;49.452;8.502;2023-05-29T06:31:44;21.50;99.90
12049;DHT22;6085;49.452;8.502;2023-05-29T06:35:47;21.40;99.90
12049;DHT22;6085;49.452;8.502;2023-05-29T06:39:49;21.00;99.90
12049;DHT22;6085;49.452;8.502;2023-05-29T06:43:51;21.30;99.90
12049;DHT22;6085;49.452;8.502;2023-05-29T06:47:53;21.90;99.90
12049;DHT22;6085;49.452;8.502;2023-05-29T06:51:57;22.70;99.90
12049;DHT22;6085;49.452;8.502;2023-05-29T06:55:59;23.70;99.80
12049;DHT22;6085;49.452;8.502;2023-05-29T07:00:01;25.00;97.50
12049;DHT22;6085;49.452;8.502;2023-05-29T07:04:04;26.20;94.60
12049;DHT22;6085;49.452;8.502;2023-05-29T07:08:09;28.60;90.40
12049;DHT22;6085;49.452;8.502;2023-05-29T07:12:11;29.50;82.20
12049;DHT22;6085;49.452;8.502;2023-05-29T07:16:13;30.70;75.80
12049;DHT22;6085;49.452;8.502;2023-05-29T07:20:15;31.80;68.80
12049;DHT22;6085;49.452;8.502;2023-05-29T07:24:20;32.70;65.00
12049;DHT22;6085;49.452;8.502;2023-05-29T07:28:22;33.60;59.80
12049;DHT22;6085;49.452;8.502;2023-05-29T07:32:25;33.30;56.90
12049;DHT22;6085;49.452;8.502;2023-05-29T07:36:30;33.00;56.30
12049;DHT22;6085;49.452;8.502;2023-05-29T07:40:34;32.60;56.40
12049;DHT22;6085;49.452;8.502;2023-05-29T07:44:36;33.50;54.50
12049;DHT22;6085;49.452;8.502;2023-05-29T07:48:38;33.50;53.10
12049;DHT22;6085;49.452;8.502;2023-05-29T07:52:40;32.70;54.80
12049;DHT22;6085;49.452;8.502;2023-05-29T07:56:43;32.60;54.10
12049;DHT22;6085;49.452;8.502;2023-05-29T08:00:46;33.70;51.40
12049;DHT22;6085;49.452;8.502;2023-05-29T08:04:48;34.00;51.20
12049;DHT22;6085;49.452;8.502;2023-05-29T08:08:50;34.50;51.10
12049;DHT22;6085;49.452;8.502;2023-05-29T08:12:53;35.80;48.50
12049;DHT22;6085;49.452;8.502;2023-05-29T08:16:56;36.50;45.30
12049;DHT22;6085;49.452;8.502;2023-05-29T08:20:58;36.60;45.90
12049;DHT22;6085;49.452;8.502;2023-05-29T08:25:00;36.70;42.20
12049;DHT22;6085;49.452;8.502;2023-05-29T08:29:03;37.00;42.80
12049;DHT22;6085;49.452;8.502;2023-05-29T08:33:05;38.00;41.40
12049;DHT22;6085;49.452;8.502;2023-05-29T08:37:07;38.40;40.20
12049;DHT22;6085;49.452;8.502;2023-05-29T08:41:15;38.00;39.20
12049;DHT22;6085;49.452;8.502;2023-05-29T08:45:22;38.00;39.40
12049;DHT22;6085;49.452;8.502;2023-05-29T08:49:28;37.90;38.80
12049;DHT22;6085;49.452;8.502;2023-05-29T08:53:31;38.60;37.70
12049;DHT22;6085;49.452;8.502;2023-05-29T08:57:34;37.70;38.70
12049;DHT22;6085;49.452;8.502;2023-05-29T09:01:40;38.40;37.40
12049;DHT22;6085;49.452;8.502;2023-05-29T09:05:45;38.70;37.30
12049;DHT22;6085;49.452;8.502;2023-05-29T09:09:48;38.70;36.90
12049;DHT22;6085;49.452;8.502;2023-05-29T09:13:52;39.30;36.20
12049;DHT22;6085;49.452;8.502;2023-05-29T09:17:56;39.80;34.70
12049;DHT22;6085;49.452;8.502;2023-05-29T09:22:02;39.10;35.90
12049;DHT22;6085;49.452;8.502;2023-05-29T09:26:05;39.50;35.90
12049;DHT22;6085;49.452;8.502;2023-05-29T09:30:10;40.50;34.30
12049;DHT22;6085;49.452;8.502;2023-05-29T09:34:14;40.10;34.40
12049;DHT22;6085;49.452;8.502;2023-05-29T09:38:17;39.40;34.00
12049;DHT22;6085;49.452;8.502;2023-05-29T09:42:19;38.80;34.60
12049;DHT22;6085;49.452;8.502;2023-05-29T09:46:21;38.80;34.80
12049;DHT22;6085;49.452;8.502;2023-05-29T09:50:27;39.10;33.80
12049;DHT22;6085;49.452;8.502;2023-05-29T09:54:29;39.10;34.40
12049;DHT22;6085;49.452;8.502;2023-05-29T09:58:32;39.20;34.60
12049;DHT22;6085;49.452;8.502;2023-05-29T10:02:36;38.50;33.90
12049;DHT22;6085;49.452;8.502;2023-05-29T10:06:44;38.20;34.00
12049;DHT22;6085;49.452;8.502;2023-05-29T10:10:52;37.20;35.20
12049;DHT22;6085;49.452;8.502;2023-05-29T10:14:57;36.10;36.70
12049;DHT22;6085;49.452;8.502;2023-05-29T10:19:00;37.10;35.10
12049;DHT22;6085;49.452;8.502;2023-05-29T10:23:09;37.90;34.40
12049;DHT22;6085;49.452;8.502;2023-05-29T10:27:11;38.30;32.50
12049;DHT22;6085;49.452;8.502;2023-05-29T10:31:17;37.90;33.70
12049;DHT22;6085;49.452;8.502;2023-05-29T10:35:25;38.50;32.80
12049;DHT22;6085;49.452;8.502;2023-05-29T10:39:30;39.40;31.80
12049;DHT22;6085;49.452;8.502;2023-05-29T10:43:34;39.80;31.70
12049;DHT22;6085;49.452;8.502;2023-05-29T10:47:38;38.80;31.40
12049;DHT22;6085;49.452;8.502;2023-05-29T10:51:40;38.20;32.60
12049;DHT22;6085;49.452;8.502;2023-05-29T10:55:45;37.90;31.70
12049;DHT22;6085;49.452;8.502;2023-05-29T10:59:47;37.30;32.40
12049;DHT22;6085;49.452;8.502;2023-05-29T11:03:49;37.50;32.10
12049;DHT22;6085;49.452;8.502;2023-05-29T11:07:57;38.10;32.20
12049;DHT22;6085;49.452;8.502;2023-05-29T11:12:16;37.40;32.70
12049;DHT22;6085;49.452;8.502;2023-05-29T11:16:38;37.20;32.50
12049;DHT22;6085;49.452;8.502;2023-05-29T11:20:44;36.70;33.20
12049;DHT22;6085;49.452;8.502;2023-05-29T11:24:52;36.00;33.80
12049;DHT22;6085;49.452;8.502;2023-05-29T11:29:03;35.90;34.50
12049;DHT22;6085;49.452;8.502;2023-05-29T11:33:07;35.20;34.70
12049;DHT22;6085;49.452;8.502;2023-05-29T11:37:11;34.90;35.10
12049;DHT22;6085;49.452;8.502;2023-05-29T11:41:13;34.70;36.50
12049;DHT22;6085;49.452;8.502;2023-05-29T11:45:21;34.00;36.40
12049;DHT22;6085;49.452;8.502;2023-05-29T11:49:28;33.60;37.50
12049;DHT22;6085;49.452;8.502;2023-05-29T11:53:30;33.30;37.50
12049;DHT22;6085;49.452;8.502;2023-05-29T11:57:32;32.90;38.40
12049;DHT22;6085;49.452;8.502;2023-05-29T12:01:35;33.00;36.90
12049;DHT22;6085;49.452;8.502;2023-05-29T12:05:45;33.20;36.90
12049;DHT22;6085;49.452;8.502;2023-05-29T12:09:46;32.50;38.00
12049;DHT22;6085;49.452;8.502;2023-05-29T12:13:56;32.10;39.00
12049;DHT22;6085;49.452;8.502;2023-05-29T12:17:59;31.60;38.60
12049;DHT22;6085;49.452;8.502;2023-05-29T12:22:03;31.00;39.40
12049;DHT22;6085;49.452;8.502;2023-05-29T12:26:05;30.50;40.40
12049;DHT22;6085;49.452;8.502;2023-05-29T12:30:08;30.00;40.90
12049;DHT22;6085;49.452;8.502;2023-05-29T12:34:12;29.60;41.20
12049;DHT22;6085;49.452;8.502;2023-05-29T12:38:18;29.20;42.40
12049;DHT22;6085;49.452;8.502;2023-05-29T12:42:22;28.90;42.60
12049;DHT22;6085;49.452;8.502;2023-05-29T12:46:24;28.70;42.20
12049;DHT22;6085;49.452;8.502;2023-05-29T12:50:29;28.40;42.60
12049;DHT22;6085;49.452;8.502;2023-05-29T12:54:31;28.40;42.70
12049;DHT22;6085;49.452;8.502;2023-05-29T12:58:33;28.30;42.70
12049;DHT22;6085;49.452;8.502;2023-05-29T13:02:34;28.40;43.10
12049;DHT22;6085;49.452;8.502;2023-05-29T13:06:38;28.10;41.60
12049;DHT22;6085;49.452;8.502;2023-05-29T13:10:40;28.00;42.70
12049;DHT22;6085;49.452;8.502;2023-05-29T13:14:42;28.00;43.30
12049;DHT22;6085;49.452;8.502;2023-05-29T13:18:44;28.00;43.70
12049;DHT22;6085;49.452;8.502;2023-05-29T13:22:48;28.00;42.20
12049;DHT22;6085;49.452;8.502;2023-05-29T13:26:50;27.80;43.70
12049;DHT22;6085;49.452;8.502;2023-05-29T13:30:51;27.70;43.20
12049;DHT22;6085;49.452;8.502;2023-05-29T13:34:53;27.70;42.70
12049;DHT22;6085;49.452;8.502;2023-05-29T13:38:57;27.60;42.80
12049;DHT22;6085;49.452;8.502;2023-05-29T13:42:59;27.60;43.50
12049;DHT22;6085;49.452;8.502;2023-05-29T13:47:01;27.70;43.50
12049;DHT22;6085;49.452;8.502;2023-05-29T13:51:03;28.00;42.50
12049;DHT22;6085;49.452;8.502;2023-05-29T13:55:07;28.20;42.00
12049;DHT22;6085;49.452;8.502;2023-05-29T13:59:09;28.30;42.80
12049;DHT22;6085;49.452;8.502;2023-05-29T14:03:11;28.10;42.10
12049;DHT22;6085;49.452;8.502;2023-05-29T14:07:13;28.10;43.00
12049;DHT22;6085;49.452;8.502;2023-05-29T14:11:17;28.10;42.90
12049;DHT22;6085;49.452;8.502;2023-05-29T14:15:19;27.70;42.90
12049;DHT22;6085;49.452;8.502;2023-05-29T14:19:21;27.40;44.00
12049;DHT22;6085;49.452;8.502;2023-05-29T14:23:23;27.40;43.70
12049;DHT22;6085;49.452;8.502;2023-05-29T14:27:27;27.20;43.70
12049;DHT22;6085;49.452;8.502;2023-05-29T14:31:29;27.20;44.20
12049;DHT22;6085;49.452;8.502;2023-05-29T14:35:31;27.10;44.60
12049;DHT22;6085;49.452;8.502;2023-05-29T14:39:33;27.20;44.70
12049;DHT22;6085;49.452;8.502;2023-05-29T14:43:38;27.20;44.30
12049;DHT22;6085;49.452;8.502;2023-05-29T14:47:40;27.00;44.20
12049;DHT22;6085;49.452;8.502;2023-05-29T14:51:42;27.10;45.20
12049;DHT22;6085;49.452;8.502;2023-05-29T14:55:45;27.20;44.10
12049;DHT22;6085;49.452;8.502;2023-05-29T14:59:48;27.30;43.80
12049;DHT22;6085;49.452;8.502;2023-05-29T15:03:50;27.50;43.70
12049;DHT22;6085;49.452;8.502;2023-05-29T15:07:53;27.40;43.70
12049;DHT22;6085;49.452;8.502;2023-05-29T15:11:57;27.40;44.80
12049;DHT22;6085;49.452;8.502;2023-05-29T15:16:00;27.40;44.20
12049;DHT22;6085;49.452;8.502;2023-05-29T15:20:04;27.40;45.00
12049;DHT22;6085;49.452;8.502;2023-05-29T15:24:06;27.30;44.30
12049;DHT22;6085;49.452;8.502;2023-05-29T15:28:08;27.20;44.10
12049;DHT22;6085;49.452;8.502;2023-05-29T15:32:12;27.10;44.20
12049;DHT22;6085;49.452;8.502;2023-05-29T15:36:14;27.00;44.30
12049;DHT22;6085;49.452;8.502;2023-05-29T15:40:16;27.10;44.10
12049;DHT22;6085;49.452;8.502;2023-05-29T15:44:18;27.10;44.00
12049;DHT22;6085;49.452;8.502;2023-05-29T15:48:21;27.00;44.80
12049;DHT22;6085;49.452;8.502;2023-05-29T15:52:24;26.90;46.20
12049;DHT22;6085;49.452;8.502;2023-05-29T15:56:25;26.90;46.70
12049;DHT22;6085;49.452;8.502;2023-05-29T16:00:29;26.90;45.70
12049;DHT22;6085;49.452;8.502;2023-05-29T16:04:32;26.80;44.30
12049;DHT22;6085;49.452;8.502;2023-05-29T16:08:34;26.80;45.30
12049;DHT22;6085;49.452;8.502;2023-05-29T16:12:36;26.70;47.10
12049;DHT22;6085;49.452;8.502;2023-05-29T16:16:38;26.70;46.80
12049;DHT22;6085;49.452;8.502;2023-05-29T16:20:41;26.60;47.50
12049;DHT22;6085;49.452;8.502;2023-05-29T16:24:43;26.50;48.40
12049;DHT22;6085;49.452;8.502;2023-05-29T16:28:45;26.50;48.70
12049;DHT22;6085;49.452;8.502;2023-05-29T16:32:47;26.40;49.40
12049;DHT22;6085;49.452;8.502;2023-05-29T16:36:51;26.50;49.40
12049;DHT22;6085;49.452;8.502;2023-05-29T16:40:53;26.50;49.70
12049;DHT22;6085;49.452;8.502;2023-05-29T16:44:54;26.40;50.80
12049;DHT22;6085;49.452;8.502;2023-05-29T16:48:56;26.30;51.10
12049;DHT22;6085;49.452;8.502;2023-05-29T16:53:00;26.20;51.20
12049;DHT22;6085;49.452;8.502;2023-05-29T16:57:03;26.10;51.60
12049;DHT22;6085;49.452;8.502;2023-05-29T17:01:05;26.00;51.50
12049;DHT22;6085;49.452;8.502;2023-05-29T17:05:08;26.00;51.60
12049;DHT22;6085;49.452;8.502;2023-05-29T17:09:12;26.00;51.50
12049;DHT22;6085;49.452;8.502;2023-05-29T17:13:14;25.90;51.80
12049;DHT22;6085;49.452;8.502;2023-05-29T17:17:17;25.70;52.20
12049;DHT22;6085;49.452;8.502;2023-05-29T17:21:19;25.80;51.60
12049;DHT22;6085;49.452;8.502;2023-05-29T17:25:22;26.10;51.50
12049;DHT22;6085;49.452;8.502;2023-05-29T17:29:24;26.40;50.90
12049;DHT22;6085;49.452;8.502;2023-05-29T17:33:26;26.30;50.90
12049;DHT22;6085;49.452;8.502;2023-05-29T17:37:28;25.90;51.40
12049;DHT22;6085;49.452;8.502;2023-05-29T17:41:31;25.60;51.80
12049;DHT22;6085;49.452;8.502;2023-05-29T17:45:33;25.30;52.40
12049;DHT22;6085;49.452;8.502;2023-05-29T17:49:35;25.20;52.60
12049;DHT22;6085;49.452;8.502;2023-05-29T17:53:37;25.30;52.50
12049;DHT22;6085;49.452;8.502;2023-05-29T17:57:40;25.30;52.40
12049;DHT22;6085;49.452;8.502;2023-05-29T18:01:42;25.30;52.40
12049;DHT22;6085;49.452;8.502;2023-05-29T18:05:44;25.10;52.70
12049;DHT22;6085;49.452;8.502;2023-05-29T18:09:46;24.90;53.00
12049;DHT22;6085;49.452;8.502;2023-05-29T18:13:50;24.60;53.70
12049;DHT22;6085;49.452;8.502;2023-05-29T18:17:52;24.40;54.40
12049;DHT22;6085;49.452;8.502;2023-05-29T18:21:54;24.20;54.60
12049;DHT22;6085;49.452;8.502;2023-05-29T18:25:56;24.00;54.80
12049;DHT22;6085;49.452;8.502;2023-05-29T18:29:59;23.90;54.80
12049;DHT22;6085;49.452;8.502;2023-05-29T18:34:02;23.80;55.20
12049;DHT22;6085;49.452;8.502;2023-05-29T18:38:04;23.60;56.30
12049;DHT22;6085;49.452;8.502;2023-05-29T18:42:06;23.50;60.70
12049;DHT22;6085;49.452;8.502;2023-05-29T18:46:10;23.30;62.70
12049;DHT22;6085;49.452;8.502;2023-05-29T18:50:12;23.20;63.90
12049;DHT22;6085;49.452;8.502;2023-05-29T18:54:14;23.00;65.50
12049;DHT22;6085;49.452;8.502;2023-05-29T18:58:17;22.70;67.00
12049;DHT22;6085;49.452;8.502;2023-05-29T19:02:21;22.60;68.80
12049;DHT22;6085;49.452;8.502;2023-05-29T19:06:23;22.40;70.10
12049;DHT22;6085;49.452;8.502;2023-05-29T19:10:25;22.30;71.60
12049;DHT22;6085;49.452;8.502;2023-05-29T19:14:27;22.10;73.40
12049;DHT22;6085;49.452;8.502;2023-05-29T19:18:30;22.00;75.10
12049;DHT22;6085;49.452;8.502;2023-05-29T19:22:33;21.90;76.90
12049;DHT22;6085;49.452;8.502;2023-05-29T19:26:35;21.70;78.50
12049;DHT22;6085;49.452;8.502;2023-05-29T19:30:37;21.50;80.80
12049;DHT22;6085;49.452;8.502;2023-05-29T19:34:40;21.30;83.30
12049;DHT22;6085;49.452;8.502;2023-05-29T19:38:42;21.20;86.00
12049;DHT22;6085;49.452;8.502;2023-05-29T19:42:44;21.20;88.30
12049;DHT22;6085;49.452;8.502;2023-05-29T19:46:46;21.10;90.30
12049;DHT22;6085;49.452;8.502;2023-05-29T19:50:51;21.00;91.40
12049;DHT22;6085;49.452;8.502;2023-05-29T19:54:53;20.80;92.50
12049;DHT22;6085;49.452;8.502;2023-05-29T19:58:55;20.70;94.10
12049;DHT22;6085;49.452;8.502;2023-05-29T20:02:58;20.60;95.40
12049;DHT22;6085;49.452;8.502;2023-05-29T20:07:01;20.50;97.00
12049;DHT22;6085;49.452;8.502;2023-05-29T20:11:04;20.40;98.50
12049;DHT22;6085;49.452;8.502;2023-05-29T20:15:10;20.30;99.90
12049;DHT22;6085;49.452;8.502;2023-05-29T20:19:13;20.20;99.90
12049;DHT22;6085;49.452;8.502;2023-05-29T20:23:17;20.20;99.90
12049;DHT22;6085;49.452;8.502;2023-05-29T20:27:19;20.20;99.90
12049;DHT22;6085;49.452;8.502;2023-05-29T20:31:21;20.10;99.90
12049;DHT22;6085;49.452;8.502;2023-05-29T20:35:25;20.10;99.90
12049;DHT22;6085;49.452;8.502;2023-05-29T20:39:29;19.90;99.90
12049;DHT22;6085;49.452;8.502;2023-05-29T20:43:35;19.80;99.90
12049;DHT22;6085;49.452;8.502;2023-05-29T20:47:38;19.70;99.90
12049;DHT22;6085;49.452;8.502;2023-05-29T20:51:40;19.60;99.90
12049;DHT22;6085;49.452;8.502;2023-05-29T20:55:44;19.60;99.90
12049;DHT22;6085;49.452;8.502;2023-05-29T20:59:46;19.50;99.90
12049;DHT22;6085;49.452;8.502;2023-05-29T21:03:48;19.40;99.90
12049;DHT22;6085;49.452;8.502;2023-05-29T21:07:52;19.30;99.90
12049;DHT22;6085;49.452;8.502;2023-05-29T21:11:58;19.20;99.90
12049;DHT22;6085;49.452;8.502;2023-05-29T21:16:01;19.10;99.90
12049;DHT22;6085;49.452;8.502;2023-05-29T21:20:05;19.00;99.90
12049;DHT22;6085;49.452;8.502;2023-05-29T21:24:07;19.00;99.90
12049;DHT22;6085;49.452;8.502;2023-05-29T21:28:13;19.00;99.90
12049;DHT22;6085;49.452;8.502;2023-05-29T21:32:15;18.80;99.90
12049;DHT22;6085;49.452;8.502;2023-05-29T21:36:17;18.70;99.90
12049;DHT22;6085;49.452;8.502;2023-05-29T21:40:19;18.60;99.90
12049;DHT22;6085;49.452;8.502;2023-05-29T21:44:23;18.50;99.90
12049;DHT22;6085;49.452;8.502;2023-05-29T21:48:26;18.40;99.90
12049;DHT22;6085;49.452;8.502;2023-05-29T21:52:28;18.30;99.90
12049;DHT22;6085;49.452;8.502;2023-05-29T21:56:30;18.20;99.90
12049;DHT22;6085;49.452;8.502;2023-05-29T22:00:33;18.20;99.90
12049;DHT22;6085;49.452;8.502;2023-05-29T22:04:35;18.10;99.90
12049;DHT22;6085;49.452;8.502;2023-05-29T22:08:41;18.00;99.90
12049;DHT22;6085;49.452;8.502;2023-05-29T22:12:43;17.90;99.90
12049;DHT22;6085;49.452;8.502;2023-05-29T22:16:46;17.80;99.90
12049;DHT22;6085;49.452;8.502;2023-05-29T22:20:48;17.70;99.90
12049;DHT22;6085;49.452;8.502;2023-05-29T22:24:51;17.60;99.90
12049;DHT22;6085;49.452;8.502;2023-05-29T22:28:53;17.50;99.90
12049;DHT22;6085;49.452;8.502;2023-05-29T22:32:56;17.50;99.90
12049;DHT22;6085;49.452;8.502;2023-05-29T22:36:58;17.50;99.90
12049;DHT22;6085;49.452;8.502;2023-05-29T22:41:00;17.40;99.90
12049;DHT22;6085;49.452;8.502;2023-05-29T22:45:04;17.40;99.90
12049;DHT22;6085;49.452;8.502;2023-05-29T22:49:09;17.40;99.90
12049;DHT22;6085;49.452;8.502;2023-05-29T22:53:12;17.30;99.90
12049;DHT22;6085;49.452;8.502;2023-05-29T22:57:14;17.20;99.90
12049;DHT22;6085;49.452;8.502;2023-05-29T23:01:16;17.10;99.90
12049;DHT22;6085;49.452;8.502;2023-05-29T23:05:20;17.00;99.90
12049;DHT22;6085;49.452;8.502;2023-05-29T23:09:22;16.90;99.90
12049;DHT22;6085;49.452;8.502;2023-05-29T23:13:24;16.90;99.90
12049;DHT22;6085;49.452;8.502;2023-05-29T23:17:26;16.80;99.90
12049;DHT22;6085;49.452;8.502;2023-05-29T23:21:29;16.70;99.90
12049;DHT22;6085;49.452;8.502;2023-05-29T23:25:32;16.70;99.90
12049;DHT22;6085;49.452;8.502;2023-05-29T23:29:34;16.60;99.90
12049;DHT22;6085;49.452;8.502;2023-05-29T23:33:36;16.60;99.90
12049;DHT22;6085;49.452;8.502;2023-05-29T23:37:39;16.60;99.90
12049;DHT22;6085;49.452;8.502;2023-05-29T23:41:42;16.60;99.90
12049;DHT22;6085;49.452;8.502;2023-05-29T23:45:45;16.60;99.90
12049;DHT22;6085;49.452;8.502;2023-05-29T23:49:46;16.60;99.90
12049;DHT22;6085;49.452;8.502;2023-05-29T23:53:50;16.50;99.90
12049;DHT22;6085;49.452;8.502;2023-05-29T23:57:52;16.50;99.90
